Terminal Aerodrome Forecast
Issued by NWS Albany, NY

Home | Current Version | Previous Version | Text Only | Print | Product List | Glossary On
Versions: 1 2 3 4 5 6 7 8 9 10 11 12 13 14 15 16 17 18 19 20 21 22 23
000
FTUS41 KALY 230500
TAFGFL
TAF
KGFL 230527Z 2306/2406 05006KT 6SM BR VCSH SCT025 OVC040
      TEMPO 2306/2310 3SM -DZ BR BKN025 OVC040
     FM231500 07006KT P6SM BKN045
     FM232200 VRB03KT P6SM SCT040
      AMD NOT SKED=

USA.gov is the U.S. government's official web portal to all federal, state and local government web resources and services.